createdAt,value
2022-12-31T00:01:39.601Z,25.52
2022-12-31T00:04:06.999Z,29.30
2022-12-31T00:06:40.623Z,26.35
2022-12-31T00:09:08.421Z,27.70
2022-12-31T00:11:37.814Z,25.02
2022-12-31T00:14:12.492Z,24.02
2022-12-31T00:16:40.902Z,21.02
2022-12-31T00:19:09.043Z,24.75
2022-12-31T00:21:36.915Z,27.90
2022-12-31T00:24:04.991Z,23.17
2022-12-31T00:26:33.474Z,20.85
2022-12-31T00:29:02.997Z,22.42
2022-12-31T00:31:32.330Z,20.63
2022-12-31T00:34:00.369Z,24.23
2022-12-31T00:36:32.013Z,22.15
2022-12-31T00:39:01.034Z,19.95
2022-12-31T00:41:29.268Z,21.70
2022-12-31T00:43:57.173Z,15.85
2022-12-31T00:46:24.994Z,14.85
2022-12-31T00:48:52.360Z,15.20
2022-12-31T00:51:21.299Z,15.05
2022-12-31T00:53:48.810Z,12.50
2022-12-31T00:56:17.785Z,12.43
2022-12-31T00:58:45.478Z,13.55
2022-12-31T01:01:16.131Z,14.73
2022-12-31T01:03:43.778Z,13.35
2022-12-31T01:06:11.982Z,15.30
2022-12-31T01:08:39.492Z,14.65
2022-12-31T01:11:07.422Z,14.68
2022-12-31T01:13:34.777Z,10.60
2022-12-31T01:19:34.715Z,12.93
2022-12-31T01:22:02.444Z,10.05
2022-12-31T01:24:29.781Z,11.20
2022-12-31T01:26:57.443Z,11.23
2022-12-31T01:29:25.834Z,12.07
2022-12-31T01:31:53.433Z,11.23
2022-12-31T01:40:36.651Z,8.60
2022-12-31T01:43:24.702Z,9.10
2022-12-31T01:46:32.571Z,9.95
2022-12-31T01:49:40.663Z,9.38
2022-12-31T01:52:32.629Z,9.15
2022-12-31T01:55:34.631Z,8.57
2022-12-31T01:58:24.076Z,8.20
2022-12-31T02:01:14.864Z,8.45
2022-12-31T02:04:05.187Z,9.43
2022-12-31T02:07:06.744Z,9.98
2022-12-31T02:09:54.352Z,8.93
2022-12-31T02:12:50.820Z,9.18
2022-12-31T02:15:53.341Z,9.68
2022-12-31T02:22:14.409Z,9.30
2022-12-31T02:25:11.532Z,9.07
2022-12-31T02:27:59.066Z,6.97
2022-12-31T02:30:50.235Z,7.10
2022-12-31T02:33:53.274Z,9.45
2022-12-31T02:36:44.119Z,6.60
2022-12-31T02:39:32.204Z,7.40
2022-12-31T02:42:20.101Z,6.72
2022-12-31T02:45:07.979Z,6.03
2022-12-31T02:48:05.691Z,6.82
2022-12-31T02:51:12.991Z,6.03
2022-12-31T02:54:10.119Z,6.07
2022-12-31T02:57:04.323Z,6.03
2022-12-31T03:00:01.270Z,6.32
2022-12-31T03:02:49.988Z,5.07
2022-12-31T03:05:40.224Z,5.63
2022-12-31T03:08:28.098Z,6.20
2022-12-31T03:11:16.081Z,6.55
2022-12-31T03:14:03.722Z,5.40
2022-12-31T03:16:51.662Z,6.05
2022-12-31T03:23:15.152Z,5.22
2022-12-31T03:26:03.527Z,4.88
2022-12-31T03:29:11.552Z,5.55
2022-12-31T03:31:59.074Z,5.85
2022-12-31T03:34:46.935Z,4.18
2022-12-31T03:37:34.615Z,5.63
2022-12-31T03:40:23.855Z,3.83
2022-12-31T03:43:11.670Z,5.00
2022-12-31T03:49:12.911Z,4.35
2022-12-31T03:51:40.557Z,5.82
2022-12-31T03:54:08.237Z,5.72
2022-12-31T03:56:59.944Z,5.72
2022-12-31T03:59:46.007Z,3.63
2022-12-31T04:02:29.915Z,4.43
2022-12-31T04:04:57.423Z,4.03
2022-12-31T04:07:25.028Z,5.45
2022-12-31T04:09:52.337Z,4.20
2022-12-31T04:12:19.909Z,3.05
2022-12-31T04:14:47.187Z,3.58
2022-12-31T04:17:14.781Z,4.15
2022-12-31T04:19:42.107Z,3.60
2022-12-31T04:22:15.540Z,3.15
2022-12-31T04:24:43.254Z,3.28
2022-12-31T04:27:11.315Z,4.10
2022-12-31T04:29:38.990Z,3.72
2022-12-31T04:32:24.878Z,4.90
2022-12-31T04:35:11.100Z,2.63
2022-12-31T04:37:57.088Z,3.28
2022-12-31T04:40:44.839Z,3.53
2022-12-31T04:43:22.662Z,3.50
2022-12-31T04:49:07.315Z,2.83
2022-12-31T04:51:34.831Z,3.63
2022-12-31T04:54:02.500Z,3.85
2022-12-31T04:56:30.301Z,4.35
2022-12-31T04:58:58.947Z,5.25
2022-12-31T05:01:26.382Z,4.10
2022-12-31T05:03:54.306Z,4.75
2022-12-31T05:06:22.802Z,4.90
2022-12-31T05:08:50.413Z,3.47
2022-12-31T05:11:17.829Z,4.85
2022-12-31T05:13:45.484Z,3.33
2022-12-31T05:16:12.884Z,4.05
2022-12-31T05:18:40.482Z,2.63
2022-12-31T05:21:07.801Z,2.85
2022-12-31T05:23:35.427Z,3.03
2022-12-31T05:26:02.760Z,3.33
2022-12-31T05:28:30.330Z,4.05
2022-12-31T05:30:57.782Z,6.30
2022-12-31T05:33:25.402Z,5.95
2022-12-31T05:35:52.688Z,3.13
2022-12-31T05:38:20.291Z,4.03
2022-12-31T05:40:47.567Z,2.90
2022-12-31T05:43:15.152Z,3.97
2022-12-31T05:45:42.547Z,4.03
2022-12-31T05:48:10.192Z,3.65
2022-12-31T05:50:37.517Z,3.72
2022-12-31T05:53:05.091Z,2.83
2022-12-31T05:55:32.435Z,2.33
2022-12-31T05:58:00.310Z,3.65
2022-12-31T06:00:27.684Z,2.80
2022-12-31T06:02:55.359Z,2.58
2022-12-31T06:05:26.136Z,3.58
2022-12-31T06:07:54.267Z,3.33
2022-12-31T06:10:21.617Z,4.63
2022-12-31T06:12:49.428Z,3.13
2022-12-31T06:15:16.834Z,3.05
2022-12-31T06:17:44.451Z,3.55
2022-12-31T06:20:13.259Z,2.95
2022-12-31T06:22:41.107Z,4.70
2022-12-31T06:25:08.810Z,3.70
2022-12-31T06:27:36.379Z,3.38
2022-12-31T06:30:03.891Z,3.58
2022-12-31T06:32:31.659Z,5.03
2022-12-31T06:34:59.019Z,3.78
2022-12-31T06:37:26.783Z,3.80
2022-12-31T06:39:54.137Z,3.97
2022-12-31T06:42:21.694Z,3.80
2022-12-31T06:44:49.037Z,4.18
2022-12-31T06:47:16.622Z,5.30
2022-12-31T06:49:44.140Z,5.03
2022-12-31T06:55:17.292Z,5.88
2022-12-31T06:57:44.996Z,3.03
2022-12-31T07:00:12.729Z,3.42
2022-12-31T07:02:57.709Z,3.65
2022-12-31T07:05:36.570Z,2.88
2022-12-31T07:08:13.012Z,3.67
2022-12-31T07:10:48.842Z,3.90
2022-12-31T07:13:26.055Z,3.53
2022-12-31T07:15:56.159Z,4.32
2022-12-31T07:18:26.535Z,3.47
2022-12-31T07:20:54.161Z,3.45
2022-12-31T07:23:21.973Z,2.92
2022-12-31T07:26:15.496Z,4.72
2022-12-31T07:28:48.993Z,2.63
2022-12-31T07:31:31.309Z,2.60
2022-12-31T07:34:06.416Z,2.55
2022-12-31T07:36:42.687Z,3.17
2022-12-31T07:39:12.826Z,2.40
2022-12-31T07:41:58.627Z,2.55
2022-12-31T07:44:37.771Z,2.03
2022-12-31T07:47:05.760Z,2.33
2022-12-31T07:49:33.955Z,3.97
2022-12-31T07:52:01.516Z,4.70
2022-12-31T07:54:29.163Z,3.92
2022-12-31T07:56:57.637Z,4.00
2022-12-31T07:59:25.208Z,3.10
2022-12-31T08:05:05.175Z,2.22
2022-12-31T08:07:37.710Z,2.35
2022-12-31T08:10:05.306Z,2.20
2022-12-31T08:12:36.898Z,4.45
2022-12-31T08:15:11.730Z,2.10
2022-12-31T08:17:39.379Z,2.42
2022-12-31T08:20:07.328Z,2.72
2022-12-31T08:22:40.461Z,3.08
2022-12-31T08:25:40.760Z,3.47
2022-12-31T08:28:17.223Z,1.95
2022-12-31T08:31:03.520Z,3.92
2022-12-31T08:33:33.555Z,2.38
2022-12-31T08:36:03.963Z,2.45
2022-12-31T08:38:37.197Z,1.60
2022-12-31T08:41:15.381Z,2.47
2022-12-31T08:43:55.008Z,2.22
2022-12-31T08:46:27.688Z,2.50
2022-12-31T08:48:55.119Z,2.50
2022-12-31T08:51:23.955Z,1.90
2022-12-31T08:53:51.809Z,3.40
2022-12-31T08:56:25.208Z,2.25
2022-12-31T08:58:52.613Z,2.20
2022-12-31T09:01:24.797Z,1.35
2022-12-31T09:03:55.368Z,3.42
2022-12-31T09:06:22.909Z,3.60
2022-12-31T09:09:05.222Z,2.08
2022-12-31T09:11:51.234Z,1.92
2022-12-31T09:14:29.538Z,2.05
2022-12-31T09:16:57.471Z,2.10
2022-12-31T09:19:24.947Z,1.55
2022-12-31T09:21:52.671Z,2.30
2022-12-31T09:24:20.312Z,1.70
2022-12-31T09:27:13.336Z,2.08
2022-12-31T09:30:03.808Z,2.15
2022-12-31T09:32:34.611Z,1.77
2022-12-31T09:35:20.567Z,3.28
2022-12-31T09:37:49.906Z,2.17
2022-12-31T09:40:29.065Z,4.82
2022-12-31T09:43:03.921Z,2.28
2022-12-31T09:46:05.130Z,3.90
2022-12-31T09:49:00.569Z,2.50
2022-12-31T09:52:04.747Z,2.00
2022-12-31T09:54:57.166Z,4.07
2022-12-31T09:58:15.868Z,1.58
2022-12-31T10:01:28.316Z,1.73
2022-12-31T10:04:08.609Z,1.73
2022-12-31T10:06:54.903Z,2.28
2022-12-31T10:09:31.275Z,1.63
2022-12-31T10:12:01.693Z,1.50
2022-12-31T10:14:34.764Z,3.22
2022-12-31T10:17:11.363Z,1.90
2022-12-31T10:20:05.946Z,1.63
2022-12-31T10:22:42.383Z,1.40
2022-12-31T10:25:15.524Z,5.95
2022-12-31T10:28:06.337Z,1.45
2022-12-31T10:37:45.674Z,1.10
2022-12-31T10:40:16.092Z,1.58
2022-12-31T10:42:46.223Z,1.33
2022-12-31T10:45:25.758Z,1.90
2022-12-31T10:47:53.137Z,2.13
2022-12-31T10:50:20.741Z,1.67
2022-12-31T10:53:03.118Z,1.20
2022-12-31T10:55:49.169Z,2.13
2022-12-31T10:58:18.945Z,3.72
2022-12-31T11:00:49.432Z,1.38
2022-12-31T11:03:35.260Z,2.63
2022-12-31T11:06:05.747Z,2.65
2022-12-31T11:08:39.027Z,0.95
2022-12-31T11:11:09.478Z,1.77
2022-12-31T11:14:02.823Z,1.50
2022-12-31T11:16:33.453Z,1.23
2022-12-31T11:19:06.826Z,1.65
2022-12-31T11:21:41.825Z,1.67
2022-12-31T11:24:27.930Z,2.13
2022-12-31T11:26:55.467Z,2.92
2022-12-31T11:29:40.919Z,3.92
2022-12-31T11:32:22.571Z,1.38
2022-12-31T11:34:55.306Z,2.40
2022-12-31T11:37:31.962Z,1.75
2022-12-31T11:39:59.325Z,3.33
2022-12-31T11:42:32.773Z,2.42
2022-12-31T11:45:12.051Z,2.25
2022-12-31T11:48:04.310Z,1.10
2022-12-31T11:50:37.705Z,1.08
2022-12-31T11:53:08.139Z,2.85
2022-12-31T11:55:41.550Z,4.00
2022-12-31T11:58:18.417Z,1.42
2022-12-31T12:01:06.021Z,2.15
2022-12-31T12:03:33.685Z,2.03
2022-12-31T12:06:01.055Z,1.65
2022-12-31T12:08:30.347Z,1.65
2022-12-31T12:11:03.323Z,2.13
2022-12-31T12:13:31.101Z,1.63
2022-12-31T12:15:59.607Z,1.33
2022-12-31T12:18:29.551Z,4.28
2022-12-31T12:21:05.959Z,1.60
2022-12-31T12:23:33.950Z,2.25
2022-12-31T12:26:01.910Z,3.50
2022-12-31T12:28:31.893Z,3.38
2022-12-31T12:31:01.301Z,1.98
2022-12-31T12:33:29.905Z,2.28
2022-12-31T12:36:09.868Z,3.75
2022-12-31T12:38:38.071Z,1.55
2022-12-31T12:41:18.539Z,1.73
2022-12-31T12:43:46.168Z,3.08
2022-12-31T12:46:21.362Z,2.40
2022-12-31T12:48:56.453Z,3.38
2022-12-31T12:51:33.327Z,2.17
2022-12-31T12:54:05.931Z,2.40
2022-12-31T12:56:40.554Z,2.75
2022-12-31T12:59:10.860Z,1.73
2022-12-31T13:01:42.571Z,1.85
2022-12-31T13:07:26.282Z,6.65
2022-12-31T13:10:06.060Z,9.98
2022-12-31T13:13:13.607Z,11.27
2022-12-31T13:15:45.471Z,4.40
2022-12-31T13:18:28.528Z,2.20
2022-12-31T13:21:01.059Z,2.72
2022-12-31T13:23:40.135Z,2.65
2022-12-31T13:26:15.036Z,2.33
2022-12-31T13:28:43.410Z,2.85
2022-12-31T13:31:18.041Z,2.25
2022-12-31T13:33:47.820Z,1.98
2022-12-31T13:36:19.976Z,2.88
2022-12-31T13:38:50.782Z,4.80
2022-12-31T13:41:26.966Z,2.90
2022-12-31T13:44:06.486Z,3.35
2022-12-31T13:46:39.366Z,2.75
2022-12-31T13:49:21.773Z,1.80
2022-12-31T13:51:50.630Z,1.38
2022-12-31T13:54:17.942Z,1.75
2022-12-31T13:56:47.127Z,2.50
2022-12-31T13:59:14.441Z,1.90
2022-12-31T14:01:44.162Z,2.38
2022-12-31T14:04:14.453Z,1.80
2022-12-31T14:06:41.992Z,2.60
2022-12-31T14:09:23.042Z,1.98
2022-12-31T14:12:03.783Z,2.08
2022-12-31T14:14:39.952Z,3.75
2022-12-31T14:17:24.607Z,3.10
2022-12-31T14:20:10.545Z,1.70
2022-12-31T14:23:00.290Z,2.25
2022-12-31T14:25:31.204Z,1.77
2022-12-31T14:28:01.064Z,3.53
2022-12-31T14:30:30.803Z,2.72
2022-12-31T14:33:20.825Z,1.83
2022-12-31T14:35:54.176Z,3.92
2022-12-31T14:38:40.180Z,3.03
2022-12-31T14:41:33.125Z,1.83
2022-12-31T14:47:28.742Z,2.08
2022-12-31T14:50:09.066Z,2.88
2022-12-31T14:52:48.302Z,2.00
2022-12-31T14:55:35.164Z,3.15
2022-12-31T15:00:53.357Z,2.88
2022-12-31T15:03:24.869Z,2.47
2022-12-31T15:06:10.972Z,2.75
2022-12-31T15:08:38.313Z,2.60
2022-12-31T15:11:11.761Z,2.63
2022-12-31T15:13:57.612Z,3.00
2022-12-31T15:16:34.355Z,2.65
2022-12-31T15:19:19.812Z,2.25
2022-12-31T15:22:04.783Z,2.08
2022-12-31T15:24:48.010Z,2.55
2022-12-31T15:27:34.622Z,3.08
2022-12-31T15:30:02.494Z,5.00
2022-12-31T15:32:39.213Z,2.58
2022-12-31T15:35:25.163Z,2.67
2022-12-31T15:37:58.603Z,2.47
2022-12-31T15:40:26.351Z,2.92
2022-12-31T15:43:07.898Z,4.10
2022-12-31T15:45:38.331Z,4.22
2022-12-31T15:48:15.738Z,2.67
2022-12-31T15:50:43.929Z,3.53
2022-12-31T15:53:34.078Z,5.47
2022-12-31T15:56:02.498Z,2.47
2022-12-31T15:58:31.676Z,2.72
2022-12-31T16:01:06.806Z,2.97
2022-12-31T16:03:34.758Z,1.88
2022-12-31T16:06:03.194Z,3.78
2022-12-31T16:08:32.293Z,2.33
2022-12-31T16:11:00.145Z,2.78
2022-12-31T16:13:28.842Z,2.72
2022-12-31T16:15:59.598Z,2.67
2022-12-31T16:18:36.124Z,2.67
2022-12-31T16:21:03.563Z,3.42
2022-12-31T16:23:31.253Z,3.53
2022-12-31T16:26:00.864Z,4.70
2022-12-31T16:28:29.842Z,3.60
2022-12-31T16:31:00.519Z,3.42
2022-12-31T16:33:28.337Z,2.80
2022-12-31T16:46:25.827Z,3.47
2022-12-31T16:48:55.162Z,4.82
2022-12-31T16:51:25.816Z,4.05
2022-12-31T16:53:53.389Z,3.33
2022-12-31T16:56:33.256Z,4.00
2022-12-31T16:59:03.167Z,5.68
2022-12-31T17:01:32.761Z,6.05
2022-12-31T17:04:02.172Z,3.10
2022-12-31T17:06:29.829Z,3.45
2022-12-31T17:08:57.159Z,3.10
2022-12-31T17:11:31.400Z,3.33
2022-12-31T17:14:06.306Z,3.72
2022-12-31T17:16:35.441Z,3.72
2022-12-31T17:19:03.213Z,3.83
2022-12-31T17:21:31.709Z,3.25
2022-12-31T17:24:04.353Z,4.10
2022-12-31T17:26:37.133Z,3.50
2022-12-31T17:29:04.755Z,6.28
2022-12-31T17:31:36.624Z,3.58
2022-12-31T17:34:05.969Z,4.57
2022-12-31T17:36:33.792Z,3.97
2022-12-31T17:39:20.301Z,5.80
2022-12-31T17:41:49.423Z,3.83
2022-12-31T17:44:18.098Z,10.95
2022-12-31T17:46:45.812Z,5.72
2022-12-31T17:49:13.307Z,5.60
2022-12-31T17:51:45.616Z,4.68
2022-12-31T17:54:15.860Z,5.10
2022-12-31T17:56:44.018Z,2.83
2022-12-31T17:59:15.625Z,4.97
2022-12-31T18:01:43.440Z,3.83
2022-12-31T18:04:14.966Z,2.53
2022-12-31T18:06:42.606Z,3.70
2022-12-31T18:09:10.048Z,2.95
2022-12-31T18:11:38.761Z,3.83
2022-12-31T18:14:06.108Z,3.63
2022-12-31T18:16:34.144Z,4.47
2022-12-31T18:19:01.661Z,3.75
2022-12-31T18:21:30.829Z,6.20
2022-12-31T18:26:25.668Z,3.80
2022-12-31T18:28:53.086Z,3.78
2022-12-31T18:31:22.093Z,3.38
2022-12-31T18:33:50.026Z,4.25
2022-12-31T18:36:19.040Z,3.17
2022-12-31T18:38:46.394Z,6.80
2022-12-31T18:41:18.176Z,3.38
2022-12-31T18:43:45.580Z,5.68
2022-12-31T18:46:14.956Z,4.40
2022-12-31T18:48:42.389Z,3.10
2022-12-31T18:51:20.079Z,3.42
2022-12-31T18:53:47.626Z,2.40
2022-12-31T18:56:16.616Z,3.33
2022-12-31T18:58:44.658Z,3.53
2022-12-31T19:01:21.241Z,6.22
2022-12-31T19:03:48.540Z,4.00
2022-12-31T19:06:16.141Z,2.50
2022-12-31T19:08:43.449Z,1.95
2022-12-31T19:11:14.750Z,6.35
2022-12-31T19:13:42.617Z,3.17
2022-12-31T19:16:10.505Z,2.33
2022-12-31T19:22:14.780Z,2.88
2022-12-31T19:27:10.310Z,6.78
2022-12-31T19:29:38.073Z,3.35
2022-12-31T19:32:05.801Z,4.18
2022-12-31T19:34:33.513Z,4.95
2022-12-31T19:37:00.870Z,4.90
2022-12-31T19:39:28.630Z,3.88
2022-12-31T19:41:59.160Z,8.30
2022-12-31T19:44:27.283Z,3.93
2022-12-31T19:46:54.757Z,6.47
2022-12-31T19:49:22.463Z,5.30
2022-12-31T19:51:49.824Z,5.95
2022-12-31T19:54:17.504Z,7.00
2022-12-31T19:56:44.822Z,6.20
2022-12-31T19:59:12.481Z,5.63
2022-12-31T20:01:39.872Z,6.55
2022-12-31T20:04:07.599Z,8.52
2022-12-31T20:06:34.963Z,11.27
2022-12-31T20:09:03.140Z,10.25
2022-12-31T20:11:30.512Z,6.80
2022-12-31T20:13:58.303Z,12.65
2022-12-31T20:16:25.825Z,5.82
2022-12-31T20:18:53.623Z,7.60
2022-12-31T20:21:22.685Z,6.82
2022-12-31T20:23:51.101Z,9.57
2022-12-31T20:26:18.636Z,9.10
2022-12-31T20:28:46.587Z,11.93
2022-12-31T20:31:18.965Z,9.80
2022-12-31T20:33:46.725Z,14.77
2022-12-31T20:36:15.334Z,16.52
2022-12-31T20:38:43.322Z,12.57
2022-12-31T20:41:14.890Z,12.23
2022-12-31T20:43:42.910Z,8.40
2022-12-31T20:46:30.905Z,9.25
2022-12-31T20:48:59.329Z,8.05
2022-12-31T20:51:28.365Z,7.78
2022-12-31T20:53:57.935Z,7.43
2022-12-31T20:56:26.923Z,7.82
2022-12-31T20:58:54.701Z,7.65
2022-12-31T21:01:22.401Z,8.27
2022-12-31T21:04:07.058Z,8.75
2022-12-31T21:06:35.532Z,10.05
2022-12-31T21:09:04.580Z,9.23
2022-12-31T21:11:32.063Z,7.60
2022-12-31T21:14:00.032Z,9.80
2022-12-31T21:16:27.868Z,8.57
2022-12-31T21:18:55.552Z,8.55
2022-12-31T21:21:23.011Z,7.88
2022-12-31T21:23:51.085Z,7.18
2022-12-31T21:26:18.454Z,7.78
2022-12-31T21:28:46.126Z,8.15
2022-12-31T21:31:14.419Z,11.13
2022-12-31T21:33:45.819Z,7.07
2022-12-31T21:36:13.759Z,9.60
2022-12-31T21:38:41.865Z,5.85
2022-12-31T21:41:16.627Z,8.45
2022-12-31T21:43:44.181Z,7.45
2022-12-31T21:46:34.124Z,5.65
2022-12-31T21:49:01.889Z,5.50
2022-12-31T21:51:29.662Z,7.47
2022-12-31T21:53:57.775Z,5.43
2022-12-31T21:56:25.095Z,8.10
2022-12-31T21:58:53.767Z,6.70
2022-12-31T22:01:21.635Z,6.78
2022-12-31T22:04:00.291Z,6.00
2022-12-31T22:06:27.792Z,9.15
2022-12-31T22:08:55.949Z,9.57
2022-12-31T22:11:24.767Z,12.00
2022-12-31T22:13:52.645Z,10.02
2022-12-31T22:16:20.571Z,9.52
2022-12-31T22:18:48.254Z,8.57
2022-12-31T22:21:19.443Z,6.95
2022-12-31T22:23:48.651Z,6.72
2022-12-31T22:26:16.748Z,9.40
2022-12-31T22:28:44.998Z,8.13
2022-12-31T22:31:13.476Z,9.18
2022-12-31T22:33:41.623Z,8.85
2022-12-31T22:36:11.170Z,11.50
2022-12-31T22:38:38.946Z,11.60
2022-12-31T22:41:10.445Z,13.90
2022-12-31T22:43:39.484Z,13.82
2022-12-31T22:46:10.090Z,14.82
2022-12-31T22:48:38.306Z,7.30
2022-12-31T22:51:06.017Z,14.40
2022-12-31T22:53:33.674Z,8.55
2022-12-31T22:56:01.106Z,14.07
2022-12-31T22:58:28.724Z,10.35
2022-12-31T23:00:56.075Z,16.00
2022-12-31T23:03:23.703Z,36.38
2022-12-31T23:05:51.859Z,26.75
2022-12-31T23:08:23.248Z,12.32
2022-12-31T23:10:52.368Z,31.00
2022-12-31T23:13:19.988Z,26.35
2022-12-31T23:15:47.379Z,27.23
2022-12-31T23:18:15.254Z,27.25
2022-12-31T23:20:42.566Z,31.83
2022-12-31T23:23:12.922Z,21.77
2022-12-31T23:25:41.899Z,26.15
2022-12-31T23:28:11.033Z,29.15
2022-12-31T23:30:39.100Z,28.20
2022-12-31T23:33:07.570Z,30.40
2022-12-31T23:35:34.904Z,32.45
2022-12-31T23:38:02.561Z,31.65
2022-12-31T23:40:29.887Z,27.85
2022-12-31T23:42:57.470Z,24.50
2022-12-31T23:45:29.561Z,26.30
2022-12-31T23:48:00.722Z,18.73
2022-12-31T23:50:28.182Z,24.00
2022-12-31T23:52:55.786Z,19.58
2022-12-31T23:55:23.161Z,18.90
2022-12-31T23:57:50.837Z,17.88
